createdAt,value
2019-03-09T00:01:55.340Z,82.70
2019-03-09T00:04:25.827Z,82.60
2019-03-09T00:06:57.478Z,82.70
2019-03-09T00:09:27.871Z,83.10
2019-03-09T00:11:59.376Z,82.80
2019-03-09T00:14:30.774Z,82.40
2019-03-09T00:17:01.157Z,81.80
2019-03-09T00:19:31.546Z,81.80
2019-03-09T00:22:03.205Z,81.70
2019-03-09T00:24:35.930Z,81.70
2019-03-09T00:27:13.919Z,81.80
2019-03-09T00:30:01.929Z,82.00
2019-03-09T00:32:33.860Z,81.20
2019-03-09T00:35:04.911Z,81.80
2019-03-09T00:37:35.294Z,81.80
2019-03-09T00:40:07.938Z,81.80
2019-03-09T00:42:42.064Z,81.60
2019-03-09T00:45:13.152Z,82.10
2019-03-09T00:47:43.536Z,82.00
2019-03-09T00:50:14.020Z,81.80
2019-03-09T00:52:45.038Z,81.80
2019-03-09T00:55:15.540Z,81.40
2019-03-09T00:57:46.282Z,81.20
2019-03-09T01:00:21.511Z,81.40
2019-03-09T01:02:52.675Z,81.50
2019-03-09T01:05:23.058Z,81.80
2019-03-09T01:07:53.607Z,82.00
2019-03-09T01:10:29.512Z,81.60
2019-03-09T01:12:58.979Z,81.50
2019-03-09T01:15:30.296Z,80.20
2019-03-09T01:18:02.460Z,79.80
2019-03-09T01:20:36.039Z,79.60
2019-03-09T01:23:06.431Z,79.70
2019-03-09T01:25:37.011Z,80.30
2019-03-09T01:28:09.987Z,80.10
2019-03-09T01:30:40.661Z,80.20
2019-03-09T01:33:11.039Z,80.60
2019-03-09T01:35:42.949Z,79.80
2019-03-09T01:38:17.336Z,79.50
2019-03-09T01:40:47.738Z,79.40
2019-03-09T01:43:18.128Z,79.30
2019-03-09T01:45:50.602Z,78.80
2019-03-09T01:48:21.303Z,78.80
2019-03-09T01:50:51.947Z,78.40
2019-03-09T01:53:25.410Z,78.70
2019-03-09T01:55:55.800Z,79.10
2019-03-09T01:58:28.792Z,79.20
2019-03-09T02:00:59.346Z,78.20
2019-03-09T02:03:29.772Z,77.70
2019-03-09T02:06:01.430Z,77.20
2019-03-09T02:08:33.851Z,76.70
2019-03-09T02:11:05.863Z,77.10
2019-03-09T02:13:39.191Z,76.70
2019-03-09T02:16:10.831Z,76.90
2019-03-09T02:18:41.606Z,76.80
2019-03-09T02:21:15.951Z,76.70
2019-03-09T02:23:46.676Z,77.00
2019-03-09T02:26:20.207Z,77.00
2019-03-09T02:28:52.911Z,76.70
2019-03-09T02:31:24.417Z,76.20
2019-03-09T02:33:55.777Z,76.60
2019-03-09T02:36:36.471Z,75.80
2019-03-09T02:39:11.533Z,75.90
2019-03-09T02:41:42.077Z,75.20
2019-03-09T02:44:15.160Z,75.40
2019-03-09T02:46:52.550Z,74.20
2019-03-09T02:49:24.433Z,74.10
2019-03-09T02:51:56.023Z,74.20
2019-03-09T03:16:02.759Z,72.50
2019-03-09T03:18:34.168Z,72.60
2019-03-09T03:21:07.195Z,72.50
2019-03-09T03:23:38.531Z,71.20
2019-03-09T03:26:10.506Z,71.10
2019-03-09T03:28:41.976Z,70.60
2019-03-09T03:31:12.676Z,71.30
2019-03-09T03:33:43.660Z,71.40
2019-03-09T03:42:03.001Z,71.00
2019-03-09T03:44:36.682Z,69.50
2019-03-09T03:47:07.385Z,69.70
2019-03-09T03:49:38.136Z,69.30
2019-03-09T03:52:12.616Z,69.50
2019-03-09T03:54:43.180Z,68.80
2019-03-09T03:57:13.867Z,68.70
2019-03-09T03:59:44.630Z,69.30
2019-03-09T04:02:15.747Z,67.70
2019-03-09T04:04:46.139Z,67.90
2019-03-09T04:07:16.798Z,67.70
2019-03-09T04:09:47.683Z,67.10
2019-03-09T04:12:18.059Z,65.40
2019-03-09T04:14:49.135Z,62.80
2019-03-09T04:17:19.687Z,60.10
2019-03-09T04:19:50.374Z,60.70
2019-03-09T04:22:20.756Z,62.90
2019-03-09T04:24:52.456Z,63.40
2019-03-09T04:27:22.878Z,61.90
2019-03-09T04:29:57.570Z,62.20
2019-03-09T04:32:27.762Z,62.00
2019-03-09T04:34:59.301Z,61.80
2019-03-09T04:37:29.674Z,60.60
2019-03-09T04:40:00.348Z,59.20
2019-03-09T04:42:30.823Z,61.00
2019-03-09T04:45:01.202Z,60.70
2019-03-09T04:47:31.769Z,57.90
2019-03-09T04:50:02.146Z,58.00
2019-03-09T04:52:36.271Z,57.80
2019-03-09T04:55:08.506Z,57.90
2019-03-09T04:57:39.145Z,56.60
2019-03-09T05:00:12.672Z,56.60
2019-03-09T05:02:43.602Z,55.90
2019-03-09T05:05:14.289Z,56.70
2019-03-09T05:07:57.680Z,54.50
2019-03-09T05:10:36.487Z,55.10
2019-03-09T05:13:15.429Z,56.90
2019-03-09T05:15:45.902Z,56.40
2019-03-09T05:18:16.617Z,56.30
2019-03-09T05:20:47.423Z,53.30
2019-03-09T05:23:18.086Z,53.40
2019-03-09T05:25:49.476Z,56.10
2019-03-09T05:28:20.172Z,56.20
2019-03-09T05:30:50.878Z,53.50
2019-03-09T05:33:21.615Z,55.40
2019-03-09T05:35:52.505Z,54.80
2019-03-09T05:38:23.170Z,55.60
2019-03-09T05:40:54.563Z,54.80
2019-03-09T05:43:25.560Z,55.20
2019-03-09T05:45:57.230Z,54.70
2019-03-09T05:48:29.737Z,56.80
2019-03-09T05:51:03.640Z,57.40
2019-03-09T05:53:35.344Z,57.30
2019-03-09T05:56:07.675Z,56.50
2019-03-09T06:01:30.107Z,56.30
2019-03-09T06:04:01.101Z,56.60
2019-03-09T06:06:32.272Z,55.80
2019-03-09T06:09:02.656Z,55.90
2019-03-09T06:11:33.409Z,56.80
2019-03-09T06:14:03.818Z,55.40
2019-03-09T06:16:34.198Z,56.10
2019-03-09T06:19:04.744Z,55.20
2019-03-09T06:21:35.127Z,55.00
2019-03-09T06:24:10.155Z,55.60
2019-03-09T06:26:40.578Z,56.10
2019-03-09T06:29:11.146Z,55.90
2019-03-09T06:31:41.522Z,56.20
2019-03-09T06:34:13.710Z,56.00
2019-03-09T06:36:46.972Z,56.50
2019-03-09T06:39:18.158Z,56.80
2019-03-09T06:42:20.596Z,56.30
2019-03-09T06:44:56.523Z,56.30
2019-03-09T06:47:27.070Z,56.30
2019-03-09T06:49:57.459Z,56.70
2019-03-09T06:52:27.834Z,55.90
2019-03-09T06:54:58.402Z,56.30
2019-03-09T06:57:28.788Z,56.80
2019-03-09T07:00:00.642Z,55.70
2019-03-09T07:02:31.183Z,56.30
2019-03-09T07:05:01.884Z,56.10
2019-03-09T07:07:34.890Z,54.90
2019-03-09T07:10:05.842Z,54.10
2019-03-09T07:12:36.237Z,55.30
2019-03-09T07:15:21.687Z,53.60
2019-03-09T07:17:54.051Z,53.30
2019-03-09T07:20:24.441Z,53.60
2019-03-09T07:23:06.069Z,55.70
2019-03-09T07:25:37.659Z,55.70
2019-03-09T07:28:15.177Z,55.60
2019-03-09T07:30:45.588Z,53.00
2019-03-09T07:33:17.060Z,54.30
2019-03-09T07:35:52.310Z,56.10
2019-03-09T07:38:46.734Z,55.70
2019-03-09T07:41:17.943Z,55.90
2019-03-09T07:44:10.826Z,56.80
2019-03-09T07:46:41.237Z,56.60
2019-03-09T07:49:16.630Z,56.30
2019-03-09T07:51:49.765Z,56.70
2019-03-09T07:54:24.557Z,56.90
2019-03-09T07:56:55.117Z,55.60
2019-03-09T07:59:26.623Z,55.80
2019-03-09T08:01:57.344Z,55.80
2019-03-09T08:04:27.920Z,56.10
2019-03-09T08:06:58.663Z,56.10
2019-03-09T08:09:31.264Z,55.30
2019-03-09T08:12:01.839Z,55.90
2019-03-09T08:14:32.261Z,55.70
2019-03-09T08:17:03.348Z,55.60
2019-03-09T08:19:33.927Z,55.60
2019-03-09T08:22:04.324Z,56.50
2019-03-09T08:24:34.723Z,56.60
2019-03-09T08:27:05.278Z,56.40
2019-03-09T08:29:35.669Z,56.70
2019-03-09T08:32:06.058Z,56.60
2019-03-09T08:34:36.618Z,55.70
2019-03-09T08:37:06.998Z,56.70
2019-03-09T08:42:38.612Z,57.10
2019-03-09T08:48:27.337Z,57.30
2019-03-09T08:50:59.197Z,58.00
2019-03-09T08:53:31.308Z,57.90
2019-03-09T08:56:01.926Z,58.20
2019-03-09T08:58:32.602Z,58.20
2019-03-09T09:01:03.077Z,58.10
2019-03-09T09:03:33.894Z,58.20
2019-03-09T09:06:05.202Z,57.70
2019-03-09T09:08:36.020Z,58.00
2019-03-09T09:11:06.428Z,58.60
2019-03-09T09:13:39.638Z,58.40
2019-03-09T09:16:10.038Z,58.50
2019-03-09T09:18:41.861Z,59.40
2019-03-09T09:24:17.655Z,59.50
2019-03-09T09:26:47.693Z,59.60
2019-03-09T09:29:25.823Z,60.00
2019-03-09T09:32:00.515Z,60.20
2019-03-09T09:44:23.801Z,61.10
2019-03-09T10:03:22.242Z,62.10
2019-03-09T10:08:54.251Z,62.90
2019-03-09T10:11:31.919Z,63.10
2019-03-09T10:30:26.294Z,65.00
2019-03-09T10:32:57.711Z,64.60
2019-03-09T10:35:28.098Z,64.90
2019-03-09T10:37:58.655Z,65.60
2019-03-09T10:40:39.900Z,65.30
2019-03-09T10:43:10.810Z,65.90
2019-03-09T12:37:31.999Z,75.60
2019-03-09T12:40:02.618Z,76.00
2019-03-09T12:42:33.270Z,76.00
2019-03-09T12:45:03.953Z,76.10
2019-03-09T12:47:35.892Z,76.20
2019-03-09T12:50:11.414Z,76.30
2019-03-09T12:52:42.789Z,76.60
2019-03-09T12:55:17.804Z,76.90
2019-03-09T12:57:48.456Z,76.80
2019-03-09T13:00:22.357Z,77.00
2019-03-09T13:02:52.920Z,77.00
2019-03-09T13:05:23.302Z,76.80
2019-03-09T13:07:53.988Z,76.70
2019-03-09T13:10:24.541Z,77.00
2019-03-09T13:12:55.150Z,77.10
2019-03-09T13:15:29.009Z,77.10
2019-03-09T13:17:59.099Z,77.30
2019-03-09T13:20:30.083Z,77.50
2019-03-09T13:23:00.579Z,77.70
2019-03-09T13:25:31.143Z,77.70
2019-03-09T13:28:01.742Z,77.70
2019-03-09T13:30:32.522Z,77.50
2019-03-09T13:33:04.014Z,77.50
2019-03-09T13:35:34.708Z,77.40
2019-03-09T13:38:06.018Z,77.50
2019-03-09T13:40:36.850Z,77.30
2019-03-09T13:43:07.515Z,77.20
2019-03-09T13:45:38.222Z,77.10
2019-03-09T13:48:08.798Z,77.10
2019-03-09T13:50:39.279Z,77.10
2019-03-09T13:53:09.763Z,77.40
2019-03-09T13:55:42.197Z,77.60
2019-03-09T13:58:22.504Z,77.80
2019-03-09T14:00:55.754Z,77.80
2019-03-09T14:03:26.759Z,78.10
2019-03-09T14:20:48.894Z,78.30
2019-03-09T14:23:19.836Z,78.80
2019-03-09T14:25:51.309Z,78.70
2019-03-09T14:28:23.776Z,78.80
2019-03-09T14:30:54.495Z,78.80
2019-03-09T14:33:24.962Z,78.70
2019-03-09T14:35:55.627Z,78.50
2019-03-09T14:38:28.503Z,78.30
2019-03-09T14:40:59.531Z,78.10
2019-03-09T14:43:30.288Z,78.50
2019-03-09T14:46:00.899Z,78.80
2019-03-09T14:48:33.711Z,78.80
2019-03-09T14:51:08.209Z,78.50
2019-03-09T14:53:41.272Z,78.50
2019-03-09T14:56:13.749Z,78.80
2019-03-09T14:58:47.965Z,78.80
2019-03-09T15:01:19.585Z,79.20
2019-03-09T15:03:50.919Z,79.40
2019-03-09T15:06:22.633Z,79.50
2019-03-09T15:12:07.195Z,79.40
2019-03-09T15:14:37.848Z,79.60
2019-03-09T15:17:08.590Z,79.70
2019-03-09T15:20:04.045Z,79.50
2019-03-09T15:22:36.116Z,79.60
2019-03-09T15:25:10.788Z,79.50
2019-03-09T15:27:42.386Z,79.60
2019-03-09T15:30:26.208Z,79.70
2019-03-09T15:32:56.912Z,79.40
2019-03-09T15:38:21.145Z,79.90
2019-03-09T15:43:43.469Z,79.30
2019-03-09T15:55:00.322Z,78.60
2019-03-09T16:00:29.278Z,79.00
2019-03-09T16:03:00.180Z,78.90
2019-03-09T16:05:55.376Z,78.70
2019-03-09T16:08:26.999Z,78.30
2019-03-09T16:10:58.094Z,78.40
2019-03-09T16:13:28.767Z,78.40
2019-03-09T16:16:00.359Z,78.20
2019-03-09T16:18:33.098Z,78.60
2019-03-09T16:21:04.446Z,78.30
2019-03-09T16:23:39.826Z,78.40
2019-03-09T16:29:03.917Z,79.00
2019-03-09T16:34:37.728Z,79.60
2019-03-09T16:40:00.338Z,80.70
2019-03-09T16:42:31.119Z,81.10
2019-03-09T16:47:59.860Z,81.50
2019-03-09T16:50:30.466Z,81.10
2019-03-09T16:53:01.080Z,81.40
2019-03-09T16:55:31.797Z,81.20
2019-03-09T16:58:10.431Z,81.50
2019-03-09T17:00:41.286Z,81.70
2019-03-09T17:03:12.164Z,81.90
2019-03-09T17:05:57.262Z,81.70
2019-03-09T17:08:30.755Z,81.50
2019-03-09T17:11:02.553Z,81.40
2019-03-09T17:13:35.419Z,81.50
2019-03-09T17:16:07.496Z,81.50
2019-03-09T17:18:42.208Z,81.80
2019-03-09T17:21:15.379Z,81.80
2019-03-09T17:26:41.186Z,81.80
2019-03-09T17:29:11.911Z,81.80
2019-03-09T17:31:44.413Z,81.90
2019-03-09T17:34:19.010Z,82.10
2019-03-09T17:36:49.792Z,82.10
2019-03-09T17:39:22.065Z,81.10
2019-03-09T17:41:52.753Z,81.70
2019-03-09T17:44:23.349Z,81.70
2019-03-09T17:46:55.215Z,81.50
2019-03-09T17:52:27.227Z,81.40
2019-03-09T17:57:51.141Z,81.00
2019-03-09T18:03:23.134Z,81.10
2019-03-09T18:05:53.818Z,81.00
2019-03-09T18:08:26.251Z,81.00
2019-03-09T18:13:55.746Z,81.30
2019-03-09T18:19:24.779Z,81.30
2019-03-09T18:22:00.239Z,81.40
2019-03-09T18:24:31.234Z,81.40
2019-03-09T18:27:02.103Z,81.80
2019-03-09T18:29:32.784Z,81.70
2019-03-09T18:32:03.692Z,81.40
2019-03-09T18:37:23.401Z,81.70
2019-03-09T18:39:56.023Z,81.80
2019-03-09T18:42:26.690Z,81.70
2019-03-09T18:44:57.442Z,81.80
2019-03-09T18:47:28.046Z,81.90
2019-03-09T18:49:58.915Z,81.80
2019-03-09T18:52:29.876Z,81.10
2019-03-09T18:55:00.577Z,81.30
2019-03-09T18:57:31.242Z,81.30
2019-03-09T19:00:02.045Z,80.80
2019-03-09T19:02:33.806Z,81.00
2019-03-09T19:05:06.775Z,81.10
2019-03-09T19:07:37.499Z,81.40
2019-03-09T19:10:22.221Z,81.50
2019-03-09T19:12:52.911Z,81.50
2019-03-09T19:15:23.624Z,81.70
2019-03-09T19:17:54.918Z,81.70
2019-03-09T19:20:25.554Z,81.80
2019-03-09T19:22:57.069Z,81.70
2019-03-09T19:25:29.296Z,81.80
2019-03-09T19:28:00.203Z,82.00
2019-03-09T19:30:32.393Z,82.00
2019-03-09T19:33:05.351Z,82.10
2019-03-09T19:35:39.042Z,82.00
2019-03-09T19:38:09.835Z,82.10
2019-03-09T19:40:40.530Z,82.00
2019-03-09T19:43:11.496Z,82.10
2019-03-09T19:45:42.039Z,82.00
2019-03-09T19:48:12.686Z,82.20
2019-03-09T19:50:43.395Z,82.20
2019-03-09T19:53:14.711Z,82.20
2019-03-09T19:55:47.675Z,82.20
2019-03-09T19:58:18.604Z,82.20
2019-03-09T20:00:49.938Z,82.30
2019-03-09T20:03:20.733Z,82.10
2019-03-09T20:05:51.461Z,82.20
2019-03-09T20:08:31.650Z,82.30
2019-03-09T20:13:52.124Z,82.40
2019-03-09T20:16:22.980Z,82.40
2019-03-09T20:18:54.334Z,82.60
2019-03-09T20:21:25.082Z,82.80
2019-03-09T20:23:56.385Z,82.80
2019-03-09T20:26:27.047Z,82.70
2019-03-09T20:28:57.772Z,82.90
2019-03-09T20:31:28.831Z,83.10
2019-03-09T20:33:59.641Z,83.10
2019-03-09T20:36:30.359Z,83.40
2019-03-09T20:39:01.243Z,83.30
2019-03-09T20:41:31.900Z,83.30
2019-03-09T20:44:03.188Z,83.20
2019-03-09T20:46:41.658Z,83.40
2019-03-09T20:49:06.350Z,83.70
2019-03-09T20:51:37.512Z,83.50
2019-03-09T20:54:08.610Z,83.70
2019-03-09T20:56:39.090Z,84.00
2019-03-09T20:59:09.791Z,83.90
2019-03-09T21:01:40.509Z,83.70
2019-03-09T21:04:11.287Z,83.90
2019-03-09T21:06:42.018Z,83.90
2019-03-09T21:09:12.874Z,84.10
2019-03-09T21:11:44.550Z,84.30
2019-03-09T21:14:16.081Z,84.10
2019-03-09T21:16:47.866Z,84.00
2019-03-09T21:19:18.558Z,84.20
2019-03-09T21:21:51.361Z,84.30
2019-03-09T21:24:22.010Z,84.20
2019-03-09T21:26:53.123Z,84.10
2019-03-09T21:29:23.877Z,84.30
2019-03-09T21:31:54.552Z,84.30
2019-03-09T21:34:25.949Z,84.30
2019-03-09T21:36:57.062Z,84.40
2019-03-09T21:39:28.725Z,84.40
2019-03-09T21:41:59.595Z,84.50
2019-03-09T21:44:31.634Z,84.60
2019-03-09T21:47:02.257Z,84.40
2019-03-09T21:49:33.053Z,84.10
2019-03-09T21:52:03.718Z,84.20
2019-03-09T21:54:34.503Z,84.40
2019-03-09T21:57:06.032Z,84.40
2019-03-09T21:59:36.858Z,84.30
2019-03-09T22:02:07.686Z,84.30
2019-03-09T22:04:38.514Z,84.40
2019-03-09T22:07:09.117Z,84.50
2019-03-09T22:09:39.854Z,84.60
2019-03-09T22:12:10.732Z,84.60
2019-03-09T22:14:41.379Z,84.40
2019-03-09T22:17:13.281Z,84.60
2019-03-09T22:19:49.641Z,84.50
2019-03-09T22:22:22.069Z,84.60
2019-03-09T22:24:52.740Z,84.70
2019-03-09T22:27:23.854Z,84.70
2019-03-09T22:29:54.806Z,84.50
2019-03-09T22:32:25.527Z,84.70
2019-03-09T22:34:56.281Z,84.60
2019-03-09T22:37:45.590Z,84.10
2019-03-09T22:40:17.548Z,85.30
2019-03-09T22:42:48.480Z,84.50
2019-03-09T22:45:19.471Z,84.80
2019-03-09T22:48:02.801Z,84.90
2019-03-09T22:50:45.514Z,84.90
2019-03-09T22:53:21.893Z,85.10
2019-03-09T22:55:53.162Z,85.10
2019-03-09T22:58:24.218Z,85.00
2019-03-09T23:00:58.135Z,84.90
2019-03-09T23:03:29.090Z,85.10
2019-03-09T23:05:59.679Z,85.20
2019-03-09T23:08:30.382Z,85.40
2019-03-09T23:11:12.324Z,85.40
2019-03-09T23:14:03.177Z,85.40
2019-03-09T23:16:34.638Z,85.40
2019-03-09T23:21:54.483Z,85.30
2019-03-09T23:24:25.764Z,85.20
2019-03-09T23:26:56.911Z,85.10
2019-03-09T23:29:29.532Z,85.10
2019-03-09T23:32:00.301Z,85.30
2019-03-09T23:34:31.479Z,85.30
2019-03-09T23:37:02.534Z,85.30
2019-03-09T23:39:35.352Z,85.20
2019-03-09T23:42:06.382Z,85.40
2019-03-09T23:44:37.097Z,85.30
2019-03-09T23:47:11.705Z,85.30
2019-03-09T23:49:42.555Z,85.30
2019-03-09T23:52:14.432Z,85.00
2019-03-09T23:54:45.111Z,84.80
2019-03-09T23:57:15.842Z,85.00
2019-03-09T23:59:46.590Z,85.70
